Time;durP1;ratioP1;P1;durP2;ratioP2;P2;SDS_P1;SDS_P2;PMS_P1;PMS_P2;Temp;Humidity;BMP_temperature;BMP_pressure;BME280_temperature;BME280_humidity;BME280_pressure;Samples;Min_cycle;Max_cycle;Signal;HPM_P1;HPM_P2
2023/10/15 00:01:27;;;;;;;2.10;1.90;;;;;;;11.23;nan;99807.53;4930038;28;20280;-77
2023/10/15 00:03:53;;;;;;;2.57;1.73;;;;;;;11.14;nan;99808.94;4907350;29;20773;-78
2023/10/15 00:06:18;;;;;;;2.83;1.90;;;;;;;11.07;nan;99808.50;4910583;28;20446;-78
2023/10/15 00:08:44;;;;;;;2.80;1.60;;;;;;;11.03;nan;99806.16;4930823;28;21132;-78
2023/10/15 00:11:13;;;;;;;3.67;1.90;;;;;;;11.01;nan;99814.13;4931913;28;20228;-78
2023/10/15 00:13:39;;;;;;;3.10;1.75;;;;;;;11.00;nan;99814.25;4931277;28;20212;-78
2023/10/15 00:16:05;;;;;;;2.50;1.50;;;;;;;10.97;nan;99817.91;4930913;28;21236;-78
2023/10/15 00:18:30;;;;;;;2.50;1.70;;;;;;;10.95;nan;99813.66;4934652;28;20209;-77
2023/10/15 00:21:02;;;;;;;1.77;1.50;;;;;;;10.95;nan;99811.88;4929573;28;20503;-78
2023/10/15 00:23:31;;;;;;;2.13;1.92;;;;;;;10.99;nan;99815.16;4935124;28;20567;-77
2023/10/15 00:25:59;;;;;;;3.63;2.00;;;;;;;11.04;nan;99805.19;4912814;29;20216;-77
2023/10/15 00:28:29;;;;;;;3.10;1.70;;;;;;;11.07;nan;99810.25;4932390;28;20208;-78
2023/10/15 00:30:54;;;;;;;4.10;3.70;;;;;;;11.04;nan;99813.09;4933084;28;20869;-77
2023/10/15 00:33:20;;;;;;;10.70;7.07;;;;;;;11.00;nan;99811.59;4935287;29;20219;-78
2023/10/15 00:35:45;;;;;;;10.67;7.00;;;;;;;10.98;nan;99803.81;4926055;28;20451;-77
2023/10/15 00:38:16;;;;;;;8.93;5.73;;;;;;;10.96;nan;99800.41;4934329;28;20196;-78
2023/10/15 00:40:42;;;;;;;7.10;4.55;;;;;;;10.99;nan;99797.63;4915274;29;20197;-77
2023/10/15 00:43:08;;;;;;;3.13;2.10;;;;;;;10.99;nan;99797.63;4931419;28;20197;-77
2023/10/15 00:45:44;;;;;;;2.08;1.40;;;;;;;10.99;nan;99788.88;4928920;28;20683;-77
2023/10/15 00:48:19;;;;;;;2.70;1.55;;;;;;;10.94;nan;99790.97;4932275;29;20258;-78
2023/10/15 00:50:44;;;;;;;6.07;1.85;;;;;;;10.94;nan;99796.22;4931041;28;20818;-77
2023/10/15 00:53:24;;;;;;;2.93;1.50;;;;;;;11.00;nan;99798.47;4913626;29;20268;-77
2023/10/15 00:55:51;;;;;;;4.63;1.20;;;;;;;10.99;nan;99802.00;4933242;28;20235;-78
2023/10/15 00:58:22;;;;;;;1.58;1.40;;;;;;;11.02;nan;99805.31;4933925;28;20698;-78
2023/10/15 01:00:53;;;;;;;2.05;1.70;;;;;;;11.07;nan;99807.63;4933624;28;20193;-78
2023/10/15 01:03:30;;;;;;;3.15;1.55;;;;;;;11.15;nan;99807.16;4935071;28;20252;-77
2023/10/15 01:05:59;;;;;;;3.33;1.50;;;;;;;11.21;nan;99807.63;4915427;28;20201;-78
2023/10/15 01:08:35;;;;;;;2.88;1.55;;;;;;;11.27;nan;99806.41;4915842;29;20546;-78
2023/10/15 01:11:11;;;;;;;2.72;1.75;;;;;;;11.32;nan;99801.69;4936637;28;20204;-78
2023/10/15 01:13:40;;;;;;;4.95;1.60;;;;;;;11.33;nan;99797.28;4937188;29;20918;-78
2023/10/15 01:16:08;;;;;;;1.70;1.30;;;;;;;11.32;nan;99796.44;4932049;28;20219;-78
2023/10/15 01:18:35;;;;;;;3.10;1.33;;;;;;;11.34;nan;99798.94;4936854;28;20198;-77
2023/10/15 01:21:01;;;;;;;3.20;2.03;;;;;;;11.35;nan;99792.78;4919785;29;20263;-78
2023/10/15 01:23:32;;;;;;;5.25;1.65;;;;;;;11.37;nan;99790.88;4927914;28;20209;-77
2023/10/15 01:25:59;;;;;;;3.55;1.95;;;;;;;11.38;nan;99797.84;4930271;28;20219;-77
2023/10/15 01:28:36;;;;;;;2.58;1.52;;;;;;;11.37;nan;99791.72;4937566;28;20204;-77
2023/10/15 01:31:04;;;;;;;1.35;1.25;;;;;;;11.38;nan;99795.19;4934687;28;20351;-78
2023/10/15 01:33:30;;;;;;;5.10;1.15;;;;;;;11.39;nan;99789.81;4918674;29;20199;-78
2023/10/15 01:35:58;;;;;;;2.28;1.50;;;;;;;11.42;nan;99791.41;4936429;28;20451;-78
2023/10/15 01:38:27;;;;;;;2.70;1.48;;;;;;;11.44;nan;99800.91;4935522;28;20295;-77
2023/10/15 01:40:56;;;;;;;4.88;1.95;;;;;;;11.47;nan;99795.44;4912359;29;20197;-77
2023/10/15 01:43:22;;;;;;;2.25;1.40;;;;;;;11.51;nan;99804.84;4904486;29;20216;-77
2023/10/15 01:45:56;;;;;;;2.45;1.45;;;;;;;11.55;nan;99802.84;4936407;28;20288;-78
2023/10/15 01:48:24;;;;;;;2.25;1.40;;;;;;;11.58;nan;99800.00;4936661;28;20197;-77
2023/10/15 01:50:51;;;;;;;2.85;1.50;;;;;;;11.60;nan;99794.66;4936505;28;20223;-77
2023/10/15 01:53:16;;;;;;;1.52;1.35;;;;;;;11.60;nan;99800.75;4935353;28;20635;-77
2023/10/15 01:55:52;;;;;;;4.47;1.70;;;;;;;11.61;nan;99801.59;4937501;28;20766;-77
2023/10/15 01:58:31;;;;;;;1.80;1.70;;;;;;;11.60;nan;99805.19;4934072;28;20722;-77
2023/10/15 02:01:20;;;;;;;1.52;1.38;;;;;;;11.57;nan;99800.97;4935025;29;20223;-78
2023/10/15 02:03:47;;;;;;;4.30;1.83;;;;;;;11.57;nan;99795.69;4918565;29;20268;-78
2023/10/15 02:06:16;;;;;;;4.25;1.38;;;;;;;11.56;nan;99794.03;4913985;29;20205;-77
2023/10/15 02:08:42;;;;;;;4.70;2.00;;;;;;;11.55;nan;99792.31;4929655;28;20208;-77
2023/10/15 02:11:15;;;;;;;6.20;1.50;;;;;;;11.55;nan;99792.31;4932579;28;20800;-76
2023/10/15 02:13:44;;;;;;;2.45;1.40;;;;;;;11.52;nan;99782.84;4932950;28;20219;-76
2023/10/15 02:16:15;;;;;;;2.55;1.20;;;;;;;11.48;nan;99788.41;4928504;28;20217;-76
2023/10/15 02:18:44;;;;;;;2.17;1.30;;;;;;;11.44;nan;99782.47;4925016;28;20208;-77
2023/10/15 02:21:15;;;;;;;2.05;1.60;;;;;;;11.43;nan;99783.44;4914201;29;20260;-77
2023/10/15 02:23:49;;;;;;;2.05;1.20;;;;;;;11.45;nan;99783.31;4914581;29;20670;-77
2023/10/15 02:26:18;;;;;;;4.97;1.40;;;;;;;11.46;nan;99785.03;4927109;28;20201;-76
2023/10/15 02:28:44;;;;;;;2.40;1.70;;;;;;;11.48;nan;99785.78;4930616;28;20204;-77
2023/10/15 02:33:35;;;;;;;2.90;1.50;;;;;;;11.46;nan;99774.50;4932075;28;20787;-76
2023/10/15 02:36:03;;;;;;;1.27;1.17;;;;;;;11.45;nan;99780.69;4929943;28;20998;-77
2023/10/15 02:38:37;;;;;;;4.72;1.50;;;;;;;11.46;nan;99779.78;4933059;28;20700;-76
2023/10/15 02:41:04;;;;;;;2.55;1.58;;;;;;;11.48;nan;99775.25;4907380;29;20204;-77
2023/10/15 02:43:31;;;;;;;2.33;1.88;;;;;;;11.51;nan;99780.31;4926001;28;20185;-76
2023/10/15 02:46:17;;;;;;;1.67;1.30;;;;;;;11.51;nan;99772.44;4929322;28;20248;-77
2023/10/15 02:48:44;;;;;;;2.05;1.30;;;;;;;11.54;nan;99774.84;4928571;28;20576;-77
2023/10/15 02:51:11;;;;;;;3.00;1.25;;;;;;;11.55;nan;99776.53;4930652;28;20208;-77
2023/10/15 02:53:39;;;;;;;2.95;1.20;;;;;;;11.58;nan;99770.22;4929950;28;20209;-76
2023/10/15 02:56:10;;;;;;;2.83;1.65;;;;;;;11.60;nan;99766.56;4930029;28;20284;-77
2023/10/15 02:58:40;;;;;;;3.08;1.60;;;;;;;11.61;nan;99770.91;4925674;28;20189;-76
2023/10/15 03:01:19;;;;;;;4.03;1.83;;;;;;;11.62;nan;99769.09;4907636;29;20201;-76
2023/10/15 03:03:54;;;;;;;2.53;1.52;;;;;;;11.63;nan;99766.34;4934354;28;20204;-77
2023/10/15 03:06:26;;;;;;;2.45;1.52;;;;;;;11.67;nan;99774.91;4928789;28;20204;-77
2023/10/15 03:08:52;;;;;;;4.40;1.45;;;;;;;11.68;nan;99774.78;4928564;29;20205;-77
2023/10/15 03:11:20;;;;;;;2.27;1.30;;;;;;;11.70;nan;99778.16;4932174;28;20208;-77
2023/10/15 03:13:56;;;;;;;3.63;1.40;;;;;;;11.70;nan;99780.81;4932427;28;20770;-77
2023/10/15 03:16:23;;;;;;;2.85;1.45;;;;;;;11.69;nan;99781.75;4931601;28;20876;-77
2023/10/15 03:18:50;;;;;;;2.17;1.35;;;;;;;11.68;nan;99781.84;4914971;29;20789;-77
2023/10/15 03:21:26;;;;;;;5.20;2.03;;;;;;;11.67;nan;99786.28;4932020;28;20272;-76
2023/10/15 03:23:56;;;;;;;2.45;1.20;;;;;;;11.66;nan;99786.34;4927190;28;20763;-76
2023/10/15 03:26:31;;;;;;;3.05;1.77;;;;;;;11.66;nan;99789.81;4930553;29;21033;-77
2023/10/15 03:29:00;;;;;;;5.75;1.35;;;;;;;11.68;nan;99787.09;4933754;28;20262;-77
2023/10/15 03:31:31;;;;;;;3.38;1.80;;;;;;;11.69;nan;99779.13;4932922;28;20224;-77
2023/10/15 03:36:30;;;;;;;1.83;1.67;;;;;;;11.65;nan;99787.31;4934336;28;20420;-77
2023/10/15 03:38:57;;;;;;;3.10;2.13;;;;;;;11.62;nan;99779.63;4933281;28;20281;-77
2023/10/15 03:41:28;;;;;;;2.72;2.22;;;;;;;11.60;nan;99784.13;4932768;29;20552;-76
2023/10/15 03:43:56;;;;;;;2.00;1.67;;;;;;;11.54;nan;99788.00;4933150;28;20263;-76
2023/10/15 03:46:25;;;;;;;2.47;1.20;;;;;;;11.46;nan;99793.75;4932170;28;20189;-77
2023/10/15 03:48:53;;;;;;;4.07;1.80;;;;;;;11.41;nan;99800.25;4934066;28;20204;-76
2023/10/15 03:51:21;;;;;;;2.97;1.48;;;;;;;11.38;nan;99789.94;4932108;28;20189;-77
2023/10/15 03:53:50;;;;;;;2.30;1.10;;;;;;;11.38;nan;99795.19;4932670;28;20568;-77
2023/10/15 03:56:27;;;;;;;2.58;1.40;;;;;;;11.40;nan;99801.22;4931259;28;20205;-76
2023/10/15 03:58:54;;;;;;;4.05;1.20;;;;;;;11.36;nan;99791.81;4933552;28;20216;-76
2023/10/15 04:01:21;;;;;;;1.80;1.70;;;;;;;11.31;nan;99794.72;4927834;29;20202;-77
2023/10/15 04:03:47;;;;;;;4.32;2.38;;;;;;;11.29;nan;99791.38;4897399;29;1085172;-77
2023/10/15 04:06:14;;;;;;;4.03;1.65;;;;;;;11.29;nan;99797.47;4932762;28;20462;-77
2023/10/15 04:08:59;;;;;;;7.07;1.52;;;;;;;11.28;nan;99790.50;4934442;28;20217;-77
2023/10/15 04:11:29;;;;;;;3.90;1.40;;;;;;;11.28;nan;99795.78;4932810;28;20210;-76
2023/10/15 04:13:56;;;;;;;3.35;2.10;;;;;;;11.29;nan;99801.91;4934151;28;20260;-76
2023/10/15 04:16:22;;;;;;;1.75;1.33;;;;;;;11.28;nan;99795.78;4934095;29;20639;-76
2023/10/15 04:18:48;;;;;;;2.95;1.90;;;;;;;11.29;nan;99807.16;4934277;28;20205;-77
2023/10/15 04:21:16;;;;;;;3.20;1.60;;;;;;;11.30;nan;99807.03;4933480;28;21755;-77
2023/10/15 04:23:49;;;;;;;1.67;1.55;;;;;;;11.36;nan;99808.44;4928296;28;20463;-77
2023/10/15 04:26:14;;;;;;;6.30;1.50;;;;;;;11.40;nan;99803.84;4928687;28;20227;-76
2023/10/15 04:28:41;;;;;;;2.43;1.67;;;;;;;11.43;nan;99803.66;4930838;28;20541;-77
2023/10/15 04:31:12;;;;;;;5.70;1.20;;;;;;;11.46;nan;99800.81;4912908;29;20551;-76
2023/10/15 04:33:41;;;;;;;1.65;1.55;;;;;;;11.46;nan;99800.81;4932330;28;20730;-76
2023/10/15 04:36:09;;;;;;;2.10;1.60;;;;;;;11.43;nan;99798.38;4930599;28;20482;-77
2023/10/15 04:38:38;;;;;;;2.28;1.40;;;;;;;11.41;nan;99805.53;4930516;28;20480;-76
2023/10/15 04:41:04;;;;;;;2.90;1.90;;;;;;;11.39;nan;99805.59;4926906;28;20260;-77
2023/10/15 04:43:29;;;;;;;5.40;2.07;;;;;;;11.34;nan;99804.22;4934273;28;20213;-76
2023/10/15 04:45:56;;;;;;;3.97;2.60;;;;;;;11.32;nan;99800.84;4931097;28;20441;-76
2023/10/15 04:48:26;;;;;;;2.90;1.20;;;;;;;11.30;nan;99799.16;4930249;28;20201;-76
2023/10/15 04:50:53;;;;;;;2.25;1.88;;;;;;;11.32;nan;99803.50;4930629;28;20217;-76
2023/10/15 04:55:49;;;;;;;2.15;1.65;;;;;;;11.37;nan;99814.53;4928113;28;20299;-76
2023/10/15 04:58:15;;;;;;;4.80;1.42;;;;;;;11.41;nan;99816.88;4929295;28;20204;-77
2023/10/15 05:00:46;;;;;;;1.95;1.50;;;;;;;11.43;nan;99815.00;4930216;29;20200;-76
2023/10/15 05:03:12;;;;;;;4.43;1.90;;;;;;;11.46;nan;99819.22;4927502;28;20292;-78
2023/10/15 05:05:38;;;;;;;2.55;1.67;;;;;;;11.47;nan;99810.38;4932047;28;20271;-75
2023/10/15 05:08:10;;;;;;;3.50;1.70;;;;;;;11.50;nan;99820.69;4930949;28;20533;-77
2023/10/15 05:10:37;;;;;;;3.65;1.63;;;;;;;11.52;nan;99824.94;4930060;28;20210;-76
2023/10/15 05:13:03;;;;;;;2.55;1.50;;;;;;;11.54;nan;99826.63;4933100;29;20221;-77
2023/10/15 05:15:28;;;;;;;1.67;1.57;;;;;;;11.55;nan;99828.31;4930775;29;20296;-76
2023/10/15 05:17:53;;;;;;;2.87;1.57;;;;;;;11.50;nan;99833.84;4932483;28;20237;-77
2023/10/15 05:20:20;;;;;;;1.40;1.30;;;;;;;11.43;nan;99837.84;4929805;28;20193;-77
2023/10/15 05:22:49;;;;;;;3.65;1.75;;;;;;;11.35;nan;99853.25;4929695;28;20201;-77
2023/10/15 05:25:18;;;;;;;1.90;1.63;;;;;;;11.32;nan;99861.34;4927907;28;20235;-76
2023/10/15 05:27:44;;;;;;;2.40;1.88;;;;;;;11.29;nan;99842.19;4930335;29;20209;-76
2023/10/15 05:30:15;;;;;;;2.85;1.83;;;;;;;11.28;nan;99827.31;4928566;28;21130;-77
2023/10/15 05:32:44;;;;;;;3.65;3.08;;;;;;;11.28;nan;99816.81;4932942;28;20714;-76
2023/10/15 05:35:10;;;;;;;3.67;2.50;;;;;;;11.29;nan;99802.72;4930672;28;20306;-76
2023/10/15 05:37:36;;;;;;;2.10;1.70;;;;;;;11.31;nan;99792.09;4934680;28;20201;-76
2023/10/15 05:40:06;;;;;;;3.13;1.80;;;;;;;11.33;nan;99815.69;4932290;28;20303;-76
2023/10/15 05:42:32;;;;;;;3.72;2.22;;;;;;;11.34;nan;99812.09;4931041;28;20853;-76
2023/10/15 05:44:58;;;;;;;2.40;1.52;;;;;;;11.36;nan;99812.84;4932214;28;20305;-76
2023/10/15 05:47:23;;;;;;;2.60;1.63;;;;;;;11.39;nan;99817.91;4932382;28;20193;-76
2023/10/15 05:49:49;;;;;;;3.40;2.07;;;;;;;11.43;nan;99824.69;4930663;28;20767;-77
2023/10/15 05:52:15;;;;;;;2.47;1.60;;;;;;;11.42;nan;99829.09;4932693;28;20296;-77
2023/10/15 05:54:40;;;;;;;3.43;2.43;;;;;;;11.41;nan;99831.81;4933036;28;20247;-77
2023/10/15 05:57:06;;;;;;;3.27;1.90;;;;;;;11.41;nan;99843.19;4935059;28;20236;-77
2023/10/15 05:59:35;;;;;;;2.47;2.17;;;;;;;11.43;nan;99851.00;4934014;28;23325;-76
2023/10/15 06:02:02;;;;;;;4.55;2.53;;;;;;;11.44;nan;99863.19;4935022;28;20208;-76
2023/10/15 06:04:27;;;;;;;3.42;2.15;;;;;;;11.45;nan;99872.75;4932620;28;20311;-76
2023/10/15 06:06:53;;;;;;;4.53;2.30;;;;;;;11.49;nan;99875.09;4927557;28;20566;-76
2023/10/15 06:09:19;;;;;;;2.87;2.30;;;;;;;11.50;nan;99868.06;4936194;28;20376;-76
2023/10/15 06:11:45;;;;;;;3.75;2.08;;;;;;;11.50;nan;99882.06;4926027;28;20197;-76
2023/10/15 06:14:10;;;;;;;2.70;1.80;;;;;;;11.49;nan;99885.63;4933514;28;20216;-77
2023/10/15 06:16:36;;;;;;;4.37;2.10;;;;;;;11.50;nan;99882.06;4925298;28;20469;-76
2023/10/15 06:19:02;;;;;;;7.35;2.50;;;;;;;11.54;nan;99885.34;4930878;28;20672;-77
2023/10/15 06:21:27;;;;;;;3.60;2.60;;;;;;;11.58;nan;99883.34;4933593;28;20201;-76
2023/10/15 06:23:53;;;;;;;1.73;1.50;;;;;;;11.61;nan;99886.66;4931729;28;20207;-76
2023/10/15 06:26:19;;;;;;;6.33;1.80;;;;;;;11.63;nan;99892.66;4929256;28;20197;-76
2023/10/15 06:28:44;;;;;;;2.10;1.90;;;;;;;11.65;nan;99888.13;4933596;28;20256;-77
2023/10/15 06:31:09;;;;;;;3.70;1.80;;;;;;;11.63;nan;99887.38;4928108;28;21063;-77
2023/10/15 06:33:40;;;;;;;2.47;2.00;;;;;;;11.58;nan;99881.56;4933392;28;20293;-77
2023/10/15 06:36:06;;;;;;;3.40;2.20;;;;;;;11.51;nan;99888.19;4933450;28;20557;-77
2023/10/15 06:38:31;;;;;;;3.33;2.08;;;;;;;11.44;nan;99887.69;4932921;28;20213;-77
2023/10/15 06:40:57;;;;;;;2.60;1.80;;;;;;;11.41;nan;99889.69;4936263;28;20200;-77
2023/10/15 06:43:23;;;;;;;2.50;1.80;;;;;;;11.40;nan;99895.91;4937613;28;20288;-77
2023/10/15 06:45:51;;;;;;;1.70;1.60;;;;;;;11.40;nan;99895.91;4929143;28;20499;-77
2023/10/15 06:48:17;;;;;;;2.88;1.90;;;;;;;11.42;nan;99902.75;4926829;28;20998;-77
2023/10/15 06:50:42;;;;;;;2.67;1.70;;;;;;;11.47;nan;99905.06;4928216;28;20264;-77
2023/10/15 06:53:08;;;;;;;4.10;2.17;;;;;;;11.53;nan;99920.50;4930489;28;20835;-77
2023/10/15 06:55:33;;;;;;;4.43;2.70;;;;;;;11.56;nan;99919.44;4933334;28;20703;-77
2023/10/15 06:57:59;;;;;;;3.83;2.40;;;;;;;11.58;nan;99918.41;4932912;28;20224;-77
2023/10/15 07:00:24;;;;;;;2.47;1.50;;;;;;;11.63;nan;99926.00;4932613;28;20205;-77
2023/10/15 07:02:53;;;;;;;3.63;2.47;;;;;;;11.68;nan;99929.19;4936250;28;20240;-77
2023/10/15 07:05:23;;;;;;;5.28;1.83;;;;;;;11.72;nan;99928.91;4931611;28;20221;-77
2023/10/15 07:07:49;;;;;;;3.88;3.05;;;;;;;11.80;nan;99932.81;4930343;28;20761;-77
2023/10/15 07:10:16;;;;;;;3.17;2.07;;;;;;;11.81;nan;99939.81;4933412;28;20572;-77
2023/10/15 07:12:47;;;;;;;3.22;2.00;;;;;;;11.81;nan;99935.38;4935565;28;20233;-77
2023/10/15 07:15:14;;;;;;;2.90;1.90;;;;;;;11.81;nan;99945.06;4932465;28;20845;-77
2023/10/15 07:17:41;;;;;;;3.20;1.70;;;;;;;11.81;nan;99939.81;4925299;28;20860;-77
2023/10/15 07:20:21;;;;;;;3.72;1.58;;;;;;;11.79;nan;99925.88;4927564;28;20207;-77
2023/10/15 07:22:51;;;;;;;2.10;1.48;;;;;;;11.82;nan;99928.31;4925353;28;20202;-77
2023/10/15 07:25:17;;;;;;;2.30;1.92;;;;;;;11.86;nan;99925.44;4928145;28;21184;-77
2023/10/15 07:27:49;;;;;;;4.38;2.17;;;;;;;11.93;nan;99931.13;4936832;28;20318;-77
2023/10/15 07:30:16;;;;;;;2.92;1.77;;;;;;;12.01;nan;99942.03;4931733;28;20208;-77
2023/10/15 07:32:44;;;;;;;1.75;1.40;;;;;;;12.08;nan;99953.03;4936719;28;20480;-77
2023/10/15 07:35:12;;;;;;;8.98;1.45;;;;;;;12.13;nan;99954.41;4937496;28;20209;-77
2023/10/15 07:37:46;;;;;;;4.55;1.90;;;;;;;12.22;nan;99958.22;4935207;28;20454;-77
2023/10/15 07:40:22;;;;;;;1.75;1.65;;;;;;;12.24;nan;99953.72;4935835;28;20259;-77
2023/10/15 07:42:50;;;;;;;6.18;1.48;;;;;;;12.28;nan;99959.63;4936698;28;20197;-77
2023/10/15 07:45:17;;;;;;;2.55;1.98;;;;;;;12.29;nan;99950.78;4936623;28;20311;-77
2023/10/15 07:47:42;;;;;;;2.28;1.50;;;;;;;12.36;nan;99967.88;4937392;28;20260;-77
2023/10/15 07:50:18;;;;;;;1.73;1.63;;;;;;;12.42;nan;99956.91;4935879;28;20252;-77
2023/10/15 07:52:45;;;;;;;3.00;1.48;;;;;;;12.51;nan;99968.66;4936126;28;20205;-77
2023/10/15 07:55:11;;;;;;;1.60;1.50;;;;;;;12.60;nan;99968.06;4934752;28;20272;-77
2023/10/15 07:57:37;;;;;;;4.83;1.90;;;;;;;12.72;nan;99966.38;4933206;28;20205;-77
2023/10/15 08:00:09;;;;;;;3.10;1.85;;;;;;;12.82;nan;99970.09;4933206;28;20856;-76
2023/10/15 08:02:41;;;;;;;3.55;2.13;;;;;;;12.94;nan;99963.16;4933415;28;20204;-77
2023/10/15 08:05:06;;;;;;;5.00;2.20;;;;;;;13.05;nan;99963.28;4933694;28;20770;-76
2023/10/15 08:07:32;;;;;;;3.20;2.00;;;;;;;13.35;nan;99965.63;4932810;28;20439;-78
2023/10/15 08:09:57;;;;;;;5.23;2.30;;;;;;;14.12;nan;99960.16;4932463;28;20213;-76
2023/10/15 08:12:23;;;;;;;3.70;1.97;;;;;;;15.26;nan;99955.19;4934207;28;20767;-78
2023/10/15 08:14:48;;;;;;;3.70;1.93;;;;;;;16.44;nan;99952.84;4933988;28;20213;-77
2023/10/15 08:17:14;;;;;;;2.53;2.00;;;;;;;17.45;nan;99950.47;4930392;28;20202;-78
2023/10/15 08:19:40;;;;;;;3.90;1.70;;;;;;;18.29;nan;99944.81;4928753;28;20197;-77
2023/10/15 08:22:05;;;;;;;2.90;1.60;;;;;;;18.99;nan;99955.31;4932413;28;20201;-77
2023/10/15 08:24:31;;;;;;;6.83;2.30;;;;;;;19.57;nan;99952.44;4935052;28;20684;-77
2023/10/15 08:26:56;;;;;;;2.40;1.50;;;;;;;19.98;nan;99945.00;4930717;28;20209;-76
2023/10/15 08:29:21;;;;;;;2.80;1.33;;;;;;;20.16;nan;99950.34;4932211;28;20212;-78
2023/10/15 08:31:47;;;;;;;2.60;2.23;;;;;;;19.59;nan;99949.66;4934774;28;20555;-76
2023/10/15 08:34:13;;;;;;;2.40;2.03;;;;;;;19.02;nan;99955.88;4931015;28;20690;-77
2023/10/15 08:36:38;;;;;;;3.20;1.60;;;;;;;18.69;nan;99957.16;4915413;28;20241;-77
2023/10/15 08:39:06;;;;;;;2.80;1.43;;;;;;;18.57;nan;99955.59;4909354;28;20232;-76
2023/10/15 08:41:38;;;;;;;3.17;1.90;;;;;;;18.29;nan;99944.81;4931439;28;20212;-78
2023/10/15 08:44:18;;;;;;;3.30;2.25;;;;;;;18.03;nan;99948.97;4928428;28;20515;-79
2023/10/15 08:46:46;;;;;;;4.80;2.00;;;;;;;18.24;nan;99951.53;4933313;28;20211;-76
2023/10/15 08:49:14;;;;;;;3.00;1.60;;;;;;;18.84;nan;99948.75;4933500;28;20490;-79
2023/10/15 08:51:46;;;;;;;4.37;1.70;;;;;;;19.30;nan;99944.44;4910638;28;20203;-78
2023/10/15 08:54:14;;;;;;;3.27;1.83;;;;;;;19.76;nan;99940.06;4935991;28;20550;-77
2023/10/15 08:56:40;;;;;;;4.90;2.03;;;;;;;19.95;nan;99947.09;4936367;28;20453;-77
2023/10/15 08:59:09;;;;;;;2.90;1.87;;;;;;;20.26;nan;99943.09;4932809;28;20524;-78
2023/10/15 09:01:37;;;;;;;2.57;1.57;;;;;;;20.67;nan;99937.31;4934349;28;20460;-76
2023/10/15 09:04:04;;;;;;;3.00;1.50;;;;;;;20.89;nan;99934.16;4929780;28;20483;-78
2023/10/15 09:06:30;;;;;;;2.10;1.60;;;;;;;20.94;nan;99931.03;4932942;28;20517;-79
2023/10/15 09:08:55;;;;;;;6.90;1.83;;;;;;;20.38;nan;99940.22;4934088;28;20978;-79
2023/10/15 09:11:21;;;;;;;3.17;2.10;;;;;;;19.58;nan;99948.00;4931745;28;20531;-79
2023/10/15 09:13:51;;;;;;;2.80;1.40;;;;;;;18.79;nan;99952.69;4934569;28;20548;-79
2023/10/15 09:16:17;;;;;;;3.20;1.70;;;;;;;18.21;nan;99943.84;4929488;28;20257;-79
2023/10/15 09:18:44;;;;;;;3.27;1.80;;;;;;;17.72;nan;99946.38;4931278;28;20464;-80
2023/10/15 09:21:09;;;;;;;9.00;2.00;;;;;;;17.25;nan;99948.66;4931646;28;20874;-82
2023/10/15 09:23:37;;;;;;;2.37;1.70;;;;;;;16.85;nan;99949.44;4933821;28;21082;-78
2023/10/15 09:26:04;;;;;;;2.75;1.75;;;;;;;16.52;nan;99956.53;4928856;28;20208;-80
2023/10/15 09:28:30;;;;;;;2.50;1.70;;;;;;;16.15;nan;99967.53;4938174;28;20233;-80
2023/10/15 09:31:05;;;;;;;4.37;1.77;;;;;;;15.85;nan;99962.03;4936014;28;20598;-80
2023/10/15 09:33:32;;;;;;;3.80;1.50;;;;;;;15.60;nan;99963.13;4946351;28;20212;-81
2023/10/15 09:35:58;;;;;;;3.40;2.00;;;;;;;15.34;nan;99962.50;4949485;28;20203;-80
2023/10/15 09:38:25;;;;;;;2.37;1.83;;;;;;;15.15;nan;99963.06;4938800;28;20589;-80
2023/10/15 09:40:55;;;;;;;1.60;1.50;;;;;;;15.00;nan;99962.47;4943559;28;20432;-80
2023/10/15 09:43:24;;;;;;;3.35;2.20;;;;;;;14.87;nan;99983.72;4943398;28;20403;-78
2023/10/15 09:45:50;;;;;;;1.50;1.40;;;;;;;14.70;nan;99979.69;4946673;28;20194;-78
2023/10/15 09:48:16;;;;;;;3.80;1.80;;;;;;;14.54;nan;99973.88;4940559;28;20201;-79
2023/10/15 09:50:44;;;;;;;2.58;1.73;;;;;;;14.38;nan;99977.59;4941444;28;20515;-79
2023/10/15 09:53:10;;;;;;;2.17;1.40;;;;;;;14.24;nan;99982.22;4941591;29;20809;-79
2023/10/15 09:55:37;;;;;;;3.13;1.50;;;;;;;14.10;nan;99988.50;4940552;28;20633;-79
2023/10/15 09:58:04;;;;;;;2.45;1.83;;;;;;;13.99;nan;99988.41;4941111;28;20221;-79
2023/10/15 10:03:48;;;;;;;5.00;1.50;;;;;;;13.92;nan;99988.88;4942026;28;20232;-79
2023/10/15 10:06:37;;;;;;;1.77;1.30;;;;;;;14.11;nan;99988.38;4939967;28;20251;-78
2023/10/15 10:09:28;;;;;;;3.75;1.67;;;;;;;14.24;nan;99974.28;4935835;28;20241;-78
2023/10/15 10:12:23;;;;;;;4.07;1.50;;;;;;;14.31;nan;99973.75;4937675;28;20205;-79
2023/10/15 10:15:22;;;;;;;1.98;1.30;;;;;;;14.36;nan;99971.56;4936807;28;20591;-79
2023/10/15 10:17:50;;;;;;;2.45;1.27;;;;;;;14.39;nan;99963.44;4936331;28;20201;-79
2023/10/15 10:20:19;;;;;;;3.30;1.40;;;;;;;14.40;nan;99961.66;4940055;28;20607;-79
2023/10/15 10:22:59;;;;;;;2.88;1.30;;;;;;;14.37;nan;99969.81;4938485;28;20229;-79
2023/10/15 10:25:40;;;;;;;2.95;1.58;;;;;;;14.35;nan;99966.41;4937492;28;20299;-79
2023/10/15 10:28:09;;;;;;;4.72;1.48;;;;;;;14.50;nan;99962.66;4937066;28;20229;-79
2023/10/15 10:30:36;;;;;;;3.00;1.20;;;;;;;14.77;nan;99965.06;4932335;28;20700;-79
2023/10/15 10:33:02;;;;;;;2.92;2.05;;;;;;;15.11;nan;99957.19;4939651;28;20193;-79
2023/10/15 10:35:28;;;;;;;2.70;1.40;;;;;;;15.39;nan;99950.63;4935838;28;20623;-79
2023/10/15 10:38:08;;;;;;;3.67;1.97;;;;;;;15.51;nan;99946.16;4935333;28;20315;-79
2023/10/15 10:40:54;;;;;;;4.97;2.05;;;;;;;15.52;nan;99950.47;4937107;28;20227;-79
2023/10/15 10:43:26;;;;;;;2.97;1.90;;;;;;;15.51;nan;99950.63;4940301;28;20774;-79
2023/10/15 10:45:58;;;;;;;1.13;1.02;;;;;;;15.41;nan;99953.13;4934552;28;20209;-79
2023/10/15 10:48:27;;;;;;;3.28;1.30;;;;;;;15.36;nan;99950.00;4940720;28;20715;-79
2023/10/15 10:51:07;;;;;;;1.30;1.05;;;;;;;15.34;nan;99954.56;4936549;28;20635;-79
2023/10/15 10:53:33;;;;;;;1.45;1.00;;;;;;;15.29;nan;99952.28;4936778;28;20226;-79
2023/10/15 10:56:03;;;;;;;2.30;1.43;;;;;;;15.25;nan;99956.97;4934094;28;21544;-79
2023/10/15 10:58:29;;;;;;;1.25;1.13;;;;;;;15.20;nan;99960.94;4936135;28;20265;-79
2023/10/15 11:00:56;;;;;;;2.88;1.13;;;;;;;15.19;nan;99953.97;4936118;28;20393;-79
2023/10/15 11:03:23;;;;;;;1.23;1.13;;;;;;;15.22;nan;99949.25;4936822;28;20255;-79
2023/10/15 11:05:48;;;;;;;3.38;1.05;;;;;;;15.26;nan;99956.00;4936247;28;21085;-79
2023/10/15 11:08:18;;;;;;;1.63;1.30;;;;;;;15.25;nan;99950.81;4935901;28;20201;-79
2023/10/15 11:10:45;;;;;;;2.15;1.10;;;;;;;15.22;nan;99957.19;4936710;28;20707;-79
2023/10/15 11:13:12;;;;;;;1.80;1.00;;;;;;;15.17;nan;99951.41;4935868;28;20584;-79
2023/10/15 11:15:38;;;;;;;1.70;1.00;;;;;;;15.13;nan;99949.97;4937887;28;20210;-79
2023/10/15 11:18:07;;;;;;;1.93;1.00;;;;;;;15.14;nan;99954.31;4936247;28;20260;-79
2023/10/15 11:20:35;;;;;;;2.40;1.15;;;;;;;15.16;nan;99948.91;4938700;28;20523;-79
2023/10/15 11:23:06;;;;;;;1.98;1.35;;;;;;;15.19;nan;99946.84;4934817;28;20197;-79
2023/10/15 11:25:34;;;;;;;1.27;1.10;;;;;;;15.30;nan;99934.59;4937588;28;20216;-79
2023/10/15 11:28:10;;;;;;;2.28;1.20;;;;;;;15.43;nan;99943.25;4935318;28;20202;-79
2023/10/15 11:30:37;;;;;;;2.75;2.55;;;;;;;15.58;nan;99935.91;4938483;28;20216;-79
2023/10/15 11:33:07;;;;;;;2.30;1.35;;;;;;;15.71;nan;99939.28;4936176;28;20624;-79
2023/10/15 11:35:32;;;;;;;1.75;1.13;;;;;;;15.78;nan;99934.38;4928159;28;20935;-79
2023/10/15 11:37:58;;;;;;;1.13;1.03;;;;;;;15.77;nan;99925.59;4931571;28;20286;-79
2023/10/15 11:40:25;;;;;;;2.27;1.30;;;;;;;15.80;nan;99929.78;4931617;28;22462;-79
2023/10/15 11:42:51;;;;;;;1.80;0.98;;;;;;;15.89;nan;99926.41;4932796;28;20225;-79
2023/10/15 11:45:30;;;;;;;2.33;2.13;;;;;;;15.95;nan;99927.72;4933848;28;20618;-79
2023/10/15 11:47:56;;;;;;;2.55;1.20;;;;;;;15.82;nan;99935.78;4935542;28;20256;-79
2023/10/15 11:50:25;;;;;;;1.45;0.90;;;;;;;15.93;nan;99938.41;4937757;28;20209;-79
2023/10/15 11:52:53;;;;;;;1.40;1.30;;;;;;;15.89;nan;99952.88;4935947;28;20208;-79
2023/10/15 11:55:20;;;;;;;1.80;1.15;;;;;;;15.82;nan;99943.75;4935523;28;20297;-79
2023/10/15 11:57:54;;;;;;;2.38;2.17;;;;;;;15.70;nan;99943.75;4933197;28;20198;-78
2023/10/15 12:00:31;;;;;;;1.92;1.15;;;;;;;15.49;nan;99940.13;4930762;29;20222;-79
2023/10/15 12:03:05;;;;;;;1.88;1.13;;;;;;;15.41;nan;99938.09;4931325;28;20711;-79
2023/10/15 12:05:34;;;;;;;3.63;1.38;;;;;;;15.37;nan;99930.53;4931443;28;20234;-79
2023/10/15 12:08:04;;;;;;;1.30;1.10;;;;;;;15.47;nan;99936.75;4933542;28;20220;-79
2023/10/15 12:10:30;;;;;;;1.42;1.17;;;;;;;15.54;nan;99930.03;4930667;28;20339;-79